Time;durP1;ratioP1;P1;durP2;ratioP2;P2;SDS_P1;SDS_P2;PMS_P1;PMS_P2;Temp;Humidity;BMP_temperature;BMP_pressure;BME280_temperature;BME280_humidity;BME280_pressure;Samples;Min_cycle;Max_cycle;Signal;HPM_P1;HPM_P2
2021/12/11 00:01:42;;;;;;;18.73;6.70;;;;;;;;;;5113064;28;20221;-75
2021/12/11 00:04:12;;;;;;;17.33;6.57;;;;;;;;;;5107114;28;20204;-75
2021/12/11 00:06:41;;;;;;;16.00;5.27;;;;;;;;;;5113752;28;20214;-75
2021/12/11 00:09:11;;;;;;;16.23;4.63;;;;;;;;;;5113523;28;20285;-75
2021/12/11 00:11:40;;;;;;;18.37;5.00;;;;;;;;;;5114147;28;20285;-75
2021/12/11 00:14:10;;;;;;;16.10;4.30;;;;;;;;;;5112964;28;20317;-75
2021/12/11 00:16:38;;;;;;;17.53;4.70;;;;;;;;;;5112745;28;20235;-75
2021/12/11 00:19:07;;;;;;;13.40;4.27;;;;;;;;;;5113389;28;20288;-75
2021/12/11 00:21:34;;;;;;;12.60;3.70;;;;;;;;;;5114028;28;20594;-75
2021/12/11 00:24:05;;;;;;;13.20;3.90;;;;;;;;;;5123206;27;20288;-75
2021/12/11 00:26:36;;;;;;;12.67;3.90;;;;;;;;;;5119445;27;20294;-75
2021/12/11 00:29:06;;;;;;;11.30;3.83;;;;;;;;;;5120918;27;20221;-75
2021/12/11 00:31:36;;;;;;;17.93;3.90;;;;;;;;;;5118266;27;20213;-75
2021/12/11 00:34:04;;;;;;;14.83;3.70;;;;;;;;;;5112868;28;20284;-75
2021/12/11 00:36:32;;;;;;;13.93;4.03;;;;;;;;;;5113517;28;20201;-75
2021/12/11 00:39:02;;;;;;;13.77;3.50;;;;;;;;;;5113036;28;20618;-75
2021/12/11 00:41:33;;;;;;;12.00;3.50;;;;;;;;;;5105813;28;20247;-75
2021/12/11 00:44:01;;;;;;;19.33;4.27;;;;;;;;;;5113429;28;20198;-74
2021/12/11 00:46:29;;;;;;;13.10;3.97;;;;;;;;;;5112725;27;20213;-75
2021/12/11 00:49:07;;;;;;;15.47;3.93;;;;;;;;;;5116852;27;20662;-75
2021/12/11 00:51:34;;;;;;;18.87;4.00;;;;;;;;;;5110646;27;20300;-75
2021/12/11 00:54:01;;;;;;;15.20;4.30;;;;;;;;;;5121878;27;20288;-75
2021/12/11 00:56:30;;;;;;;14.07;4.40;;;;;;;;;;5117775;27;20289;-75
2021/12/11 00:58:59;;;;;;;15.77;4.43;;;;;;;;;;5112355;28;20284;-75
2021/12/11 01:01:29;;;;;;;12.03;4.93;;;;;;;;;;5111518;27;20295;-75
2021/12/11 01:04:00;;;;;;;17.17;5.37;;;;;;;;;;5106772;28;20243;-76
2021/12/11 01:06:28;;;;;;;20.50;5.77;;;;;;;;;;5110266;28;20280;-75
2021/12/11 01:08:58;;;;;;;16.27;6.07;;;;;;;;;;5113009;27;20309;-75
2021/12/11 01:11:26;;;;;;;16.77;5.43;;;;;;;;;;5112533;28;20197;-75
2021/12/11 01:14:05;;;;;;;16.17;5.30;;;;;;;;;;5116347;27;20281;-75
2021/12/11 01:16:33;;;;;;;14.07;5.03;;;;;;;;;;5111842;27;20228;-75
2021/12/11 01:19:03;;;;;;;16.43;5.47;;;;;;;;;;5112235;28;20280;-75
2021/12/11 01:21:43;;;;;;;19.07;5.33;;;;;;;;;;5112887;27;20200;-75
2021/12/11 01:24:26;;;;;;;17.20;5.30;;;;;;;;;;5112830;28;20201;-74
2021/12/11 01:26:54;;;;;;;23.70;5.50;;;;;;;;;;5112151;28;20290;-75
2021/12/11 01:29:22;;;;;;;16.23;5.13;;;;;;;;;;5112535;27;20292;-75
2021/12/11 01:31:50;;;;;;;17.03;4.90;;;;;;;;;;5114785;27;20190;-75
2021/12/11 01:34:19;;;;;;;17.60;5.30;;;;;;;;;;5112160;28;20721;-75
2021/12/11 01:36:47;;;;;;;15.80;5.03;;;;;;;;;;5112114;28;20292;-75
2021/12/11 01:39:16;;;;;;;14.30;5.97;;;;;;;;;;5112572;28;20606;-75
2021/12/11 01:41:44;;;;;;;16.20;5.80;;;;;;;;;;5112051;28;20283;-75
2021/12/11 01:44:13;;;;;;;14.33;6.87;;;;;;;;;;5113082;28;20284;-75
2021/12/11 01:46:40;;;;;;;21.83;7.60;;;;;;;;;;5111789;28;20732;-75
2021/12/11 01:49:10;;;;;;;16.67;6.73;;;;;;;;;;5091843;28;20313;-76
2021/12/11 01:51:40;;;;;;;19.17;6.47;;;;;;;;;;5112454;28;20281;-75
2021/12/11 01:54:12;;;;;;;15.80;6.13;;;;;;;;;;5112734;28;20293;-75
2021/12/11 01:56:41;;;;;;;18.00;6.27;;;;;;;;;;5111620;28;20213;-75
2021/12/11 01:59:13;;;;;;;16.97;5.90;;;;;;;;;;5111952;28;20208;-75
2021/12/11 02:01:42;;;;;;;14.57;6.03;;;;;;;;;;5112714;28;20306;-75
2021/12/11 02:04:10;;;;;;;14.87;6.43;;;;;;;;;;5111724;28;20237;-75
2021/12/11 02:06:40;;;;;;;15.83;6.13;;;;;;;;;;5112514;27;20233;-75
2021/12/11 02:09:10;;;;;;;17.50;5.83;;;;;;;;;;5117756;27;20220;-75
2021/12/11 02:11:37;;;;;;;19.80;6.13;;;;;;;;;;5113201;27;20197;-75
2021/12/11 02:14:06;;;;;;;18.70;5.80;;;;;;;;;;5111543;28;20696;-75
2021/12/11 02:16:38;;;;;;;18.50;6.40;;;;;;;;;;5110663;27;20282;-75
2021/12/11 02:19:06;;;;;;;17.20;6.37;;;;;;;;;;5119640;27;20198;-75
2021/12/11 02:21:35;;;;;;;19.13;7.17;;;;;;;;;;5111273;28;20196;-75
2021/12/11 02:24:06;;;;;;;17.40;7.20;;;;;;;;;;5114135;27;20228;-75
2021/12/11 02:26:36;;;;;;;17.13;6.87;;;;;;;;;;5110455;28;20296;-75
2021/12/11 02:29:06;;;;;;;19.57;6.90;;;;;;;;;;5108881;28;20312;-75
2021/12/11 02:31:35;;;;;;;17.27;6.50;;;;;;;;;;5113250;28;20239;-75
2021/12/11 02:34:08;;;;;;;18.13;7.03;;;;;;;;;;5111809;28;20500;-75
2021/12/11 02:36:39;;;;;;;20.53;7.33;;;;;;;;;;5111766;28;20234;-75
2021/12/11 02:39:09;;;;;;;20.07;7.00;;;;;;;;;;5112001;28;20193;-75
2021/12/11 02:41:38;;;;;;;23.50;6.77;;;;;;;;;;5112077;28;20287;-75
2021/12/11 02:44:08;;;;;;;20.93;6.33;;;;;;;;;;5111251;28;20280;-75
2021/12/11 02:46:38;;;;;;;21.67;6.17;;;;;;;;;;5111679;28;20288;-75
2021/12/11 02:49:10;;;;;;;17.43;6.20;;;;;;;;;;5111734;28;20221;-75
2021/12/11 02:51:41;;;;;;;17.07;6.90;;;;;;;;;;5111334;28;20200;-75
2021/12/11 02:54:15;;;;;;;18.67;7.03;;;;;;;;;;5112578;28;20294;-76
2021/12/11 02:56:44;;;;;;;17.60;8.30;;;;;;;;;;5105971;28;20288;-75
2021/12/11 02:59:14;;;;;;;25.20;8.17;;;;;;;;;;5111475;28;20551;-75
2021/12/11 03:01:43;;;;;;;20.77;8.07;;;;;;;;;;5113448;28;20285;-75
2021/12/11 03:04:18;;;;;;;20.90;7.80;;;;;;;;;;5119576;27;20227;-75
2021/12/11 03:06:48;;;;;;;25.23;8.47;;;;;;;;;;5102276;28;20212;-75
2021/12/11 03:09:18;;;;;;;24.87;9.40;;;;;;;;;;5114447;28;20658;-75
2021/12/11 03:11:46;;;;;;;24.37;10.00;;;;;;;;;;5115096;28;20240;-75
2021/12/11 03:14:14;;;;;;;19.77;9.03;;;;;;;;;;5115689;28;20769;-75
2021/12/11 03:16:42;;;;;;;18.40;6.83;;;;;;;;;;5120083;27;20224;-75
2021/12/11 03:19:10;;;;;;;19.17;6.30;;;;;;;;;;5117088;27;20276;-75
2021/12/11 03:21:38;;;;;;;17.23;6.20;;;;;;;;;;5114995;27;20209;-75
2021/12/11 03:24:06;;;;;;;22.13;6.67;;;;;;;;;;5114855;28;20306;-75
2021/12/11 03:26:35;;;;;;;21.00;6.77;;;;;;;;;;5114252;27;20291;-75
2021/12/11 03:29:02;;;;;;;20.30;6.67;;;;;;;;;;5114533;28;20300;-75
2021/12/11 03:31:30;;;;;;;16.90;6.23;;;;;;;;;;5115429;28;20235;-75
2021/12/11 03:33:59;;;;;;;19.03;6.50;;;;;;;;;;5118968;27;20286;-74
2021/12/11 03:36:27;;;;;;;25.03;7.30;;;;;;;;;;5119764;27;20284;-75
2021/12/11 03:38:56;;;;;;;22.40;7.80;;;;;;;;;;5114417;28;20390;-74
2021/12/11 03:41:24;;;;;;;22.03;7.17;;;;;;;;;;5117557;27;20288;-74
2021/12/11 03:43:53;;;;;;;22.73;6.77;;;;;;;;;;5116450;27;20263;-75
2021/12/11 03:46:20;;;;;;;22.07;6.00;;;;;;;;;;5114297;27;20283;-75
2021/12/11 03:48:48;;;;;;;21.70;6.80;;;;;;;;;;5097896;28;20316;-75
2021/12/11 03:51:19;;;;;;;19.87;5.80;;;;;;;;;;5114958;28;20284;-75
2021/12/11 03:53:47;;;;;;;17.93;6.20;;;;;;;;;;5115145;27;20616;-75
2021/12/11 03:56:15;;;;;;;20.97;6.67;;;;;;;;;;5113888;28;20715;-75
2021/12/11 03:58:48;;;;;;;19.57;6.60;;;;;;;;;;5111435;28;20291;-75
2021/12/11 04:01:21;;;;;;;14.47;6.60;;;;;;;;;;5106196;28;20201;-75
2021/12/11 04:03:50;;;;;;;15.83;6.63;;;;;;;;;;5114219;28;20205;-75
2021/12/11 04:06:17;;;;;;;16.07;6.33;;;;;;;;;;5113691;28;20620;-75
2021/12/11 04:08:45;;;;;;;14.37;6.37;;;;;;;;;;5114436;28;20328;-75
2021/12/11 04:11:15;;;;;;;22.90;6.57;;;;;;;;;;5115077;27;20200;-75
2021/12/11 04:13:43;;;;;;;15.00;6.50;;;;;;;;;;5113393;28;20200;-75
2021/12/11 04:16:11;;;;;;;17.70;6.53;;;;;;;;;;5114076;27;20307;-75
2021/12/11 04:18:40;;;;;;;16.80;6.10;;;;;;;;;;5121551;27;20300;-75
2021/12/11 04:21:07;;;;;;;16.03;7.00;;;;;;;;;;5113402;27;20289;-75
2021/12/11 04:23:34;;;;;;;15.33;6.27;;;;;;;;;;5113763;28;20289;-75
2021/12/11 04:26:02;;;;;;;12.73;5.63;;;;;;;;;;5113725;28;20739;-75
2021/12/11 04:28:30;;;;;;;15.47;5.70;;;;;;;;;;5112643;28;20303;-75
2021/12/11 04:31:04;;;;;;;17.23;5.20;;;;;;;;;;5114001;28;20668;-75
2021/12/11 04:33:31;;;;;;;10.87;4.90;;;;;;;;;;5101175;28;20198;-75
2021/12/11 04:36:00;;;;;;;11.43;5.00;;;;;;;;;;5113727;28;20204;-75
2021/12/11 04:38:27;;;;;;;17.27;5.57;;;;;;;;;;5117030;27;20221;-75
2021/12/11 04:40:57;;;;;;;14.20;5.57;;;;;;;;;;5117150;27;20626;-75
2021/12/11 04:43:25;;;;;;;16.00;5.17;;;;;;;;;;5117889;27;20235;-74
2021/12/11 04:45:54;;;;;;;18.70;4.77;;;;;;;;;;5118953;27;20641;-75
2021/12/11 04:48:32;;;;;;;17.97;5.57;;;;;;;;;;5113325;28;20213;-74
2021/12/11 04:51:10;;;;;;;12.47;5.03;;;;;;;;;;5113445;28;20209;-75
2021/12/11 04:53:50;;;;;;;12.83;5.27;;;;;;;;;;5112552;28;20292;-74
2021/12/11 04:56:47;;;;;;;20.23;5.97;;;;;;;;;;5118147;27;20196;-75
2021/12/11 05:02:17;;;;;;;23.23;5.93;;;;;;;;;;5099961;28;20197;-75
2021/12/11 05:04:56;;;;;;;12.30;5.50;;;;;;;;;;5113084;27;20300;-75
2021/12/11 05:07:32;;;;;;;17.83;5.67;;;;;;;;;;5112380;28;20203;-75
2021/12/11 05:10:06;;;;;;;16.03;5.87;;;;;;;;;;5106346;28;20695;-75
2021/12/11 05:12:35;;;;;;;13.37;6.20;;;;;;;;;;5112566;28;20298;-75
2021/12/11 05:15:08;;;;;;;14.20;6.80;;;;;;;;;;5112925;28;20220;-75
2021/12/11 05:17:35;;;;;;;19.83;9.93;;;;;;;;;;5112930;28;20259;-75
2021/12/11 05:20:03;;;;;;;21.80;10.13;;;;;;;;;;5112974;28;20279;-75
2021/12/11 05:22:32;;;;;;;16.37;8.50;;;;;;;;;;5123593;27;20296;-75
2021/12/11 05:24:59;;;;;;;14.67;7.27;;;;;;;;;;5111878;28;20228;-75
2021/12/11 05:27:26;;;;;;;16.17;5.60;;;;;;;;;;5112754;28;20300;-75
2021/12/11 05:29:54;;;;;;;15.97;5.70;;;;;;;;;;5112524;28;20739;-75
2021/12/11 05:32:22;;;;;;;12.30;5.40;;;;;;;;;;5112962;28;20739;-75
2021/12/11 05:34:50;;;;;;;15.97;5.60;;;;;;;;;;5112680;28;20288;-75
2021/12/11 05:37:17;;;;;;;21.57;6.13;;;;;;;;;;5112362;28;20316;-75
2021/12/11 05:39:46;;;;;;;20.60;7.47;;;;;;;;;;5112533;28;20614;-75
2021/12/11 05:42:13;;;;;;;18.40;8.20;;;;;;;;;;5113135;28;20204;-75
2021/12/11 05:44:40;;;;;;;18.23;7.20;;;;;;;;;;5118629;27;20215;-75
2021/12/11 05:47:07;;;;;;;20.03;6.47;;;;;;;;;;5111947;28;20216;-75
2021/12/11 05:49:36;;;;;;;16.77;6.73;;;;;;;;;;5101526;27;20228;-75
2021/12/11 05:52:06;;;;;;;19.97;7.00;;;;;;;;;;5111516;28;20240;-74
2021/12/11 05:54:33;;;;;;;19.37;6.20;;;;;;;;;;5111459;28;20201;-74
2021/12/11 05:57:04;;;;;;;18.23;5.70;;;;;;;;;;5111872;28;20233;-75
2021/12/11 05:59:32;;;;;;;15.27;4.93;;;;;;;;;;5115346;27;20215;-75
2021/12/11 06:02:00;;;;;;;24.13;5.53;;;;;;;;;;5111440;28;20284;-75
2021/12/11 06:04:29;;;;;;;21.50;5.37;;;;;;;;;;5111248;28;20296;-74
2021/12/11 06:06:57;;;;;;;12.73;5.07;;;;;;;;;;5111203;28;20203;-75
2021/12/11 06:09:26;;;;;;;20.03;5.20;;;;;;;;;;5111591;28;20309;-75
2021/12/11 06:11:55;;;;;;;15.03;5.63;;;;;;;;;;5111352;28;20205;-75
2021/12/11 06:14:24;;;;;;;15.60;5.33;;;;;;;;;;5111444;28;20213;-75
2021/12/11 06:16:53;;;;;;;21.90;6.50;;;;;;;;;;5111903;28;20236;-75
2021/12/11 06:19:22;;;;;;;17.33;5.97;;;;;;;;;;5111162;28;20225;-75
2021/12/11 06:21:50;;;;;;;15.93;6.47;;;;;;;;;;5112407;28;20284;-75
2021/12/11 06:24:17;;;;;;;13.40;6.30;;;;;;;;;;5111690;28;20287;-75
2021/12/11 06:26:44;;;;;;;13.40;6.00;;;;;;;;;;5105977;28;20294;-75
2021/12/11 06:29:12;;;;;;;17.23;6.40;;;;;;;;;;5111524;28;20314;-75
2021/12/11 06:31:42;;;;;;;19.63;6.27;;;;;;;;;;5111417;28;20739;-75
2021/12/11 06:34:10;;;;;;;11.87;6.57;;;;;;;;;;5118250;28;20242;-76
2021/12/11 06:36:37;;;;;;;16.73;6.87;;;;;;;;;;5118231;27;20291;-75
2021/12/11 06:39:06;;;;;;;12.23;6.50;;;;;;;;;;5111755;28;20287;-75
2021/12/11 06:41:35;;;;;;;16.67;6.53;;;;;;;;;;5111883;28;20298;-75
2021/12/11 06:44:02;;;;;;;13.80;6.53;;;;;;;;;;5111934;28;20200;-75
2021/12/11 06:46:30;;;;;;;14.23;6.50;;;;;;;;;;5111229;28;20307;-75
2021/12/11 06:48:59;;;;;;;12.33;6.07;;;;;;;;;;5111204;28;20311;-75
2021/12/11 06:51:26;;;;;;;11.07;6.10;;;;;;;;;;5116800;28;20292;-75
2021/12/11 06:53:58;;;;;;;13.60;5.93;;;;;;;;;;5111640;28;20200;-75
2021/12/11 06:56:26;;;;;;;12.77;7.00;;;;;;;;;;5111285;28;20607;-75
2021/12/11 06:58:54;;;;;;;18.57;8.23;;;;;;;;;;5110893;28;20284;-75
2021/12/11 07:01:22;;;;;;;24.27;8.80;;;;;;;;;;5110859;28;20283;-76
2021/12/11 07:03:50;;;;;;;28.73;9.17;;;;;;;;;;5123989;27;20280;-75
2021/12/11 07:06:19;;;;;;;26.00;10.20;;;;;;;;;;5113197;28;20631;-75
2021/12/11 07:08:47;;;;;;;27.80;10.67;;;;;;;;;;5110796;28;20708;-75
2021/12/11 07:11:15;;;;;;;17.53;9.20;;;;;;;;;;5111339;28;20278;-75
2021/12/11 07:13:42;;;;;;;22.53;8.00;;;;;;;;;;5110885;28;20201;-75
2021/12/11 07:16:10;;;;;;;14.57;6.93;;;;;;;;;;5110787;28;20333;-75
2021/12/11 07:18:38;;;;;;;16.33;6.97;;;;;;;;;;5110703;28;20288;-75
2021/12/11 07:21:06;;;;;;;11.20;6.07;;;;;;;;;;5110749;28;20201;-75
2021/12/11 07:23:35;;;;;;;15.80;6.37;;;;;;;;;;5111391;28;20296;-75
2021/12/11 07:26:04;;;;;;;15.93;6.53;;;;;;;;;;5111405;28;20240;-75
2021/12/11 07:28:31;;;;;;;15.20;6.63;;;;;;;;;;5111273;28;20672;-75
2021/12/11 07:31:00;;;;;;;14.50;6.33;;;;;;;;;;5110424;28;20755;-75
2021/12/11 07:33:27;;;;;;;16.03;6.80;;;;;;;;;;5110675;28;20208;-75
2021/12/11 07:35:54;;;;;;;14.47;7.10;;;;;;;;;;5111165;28;20287;-75
2021/12/11 07:38:22;;;;;;;12.53;6.90;;;;;;;;;;5110827;28;20656;-75
2021/12/11 07:40:52;;;;;;;15.40;7.30;;;;;;;;;;5111517;28;20288;-75
2021/12/11 07:43:20;;;;;;;18.43;6.83;;;;;;;;;;5117842;28;20284;-75
2021/12/11 07:45:48;;;;;;;17.43;7.40;;;;;;;;;;5131825;27;20300;-74
2021/12/11 07:48:15;;;;;;;11.97;6.77;;;;;;;;;;5121388;27;20748;-75
2021/12/11 07:50:43;;;;;;;17.00;6.77;;;;;;;;;;5114151;28;20663;-75
2021/12/11 07:53:10;;;;;;;13.27;6.50;;;;;;;;;;5115120;28;20258;-75
2021/12/11 07:55:38;;;;;;;15.63;7.07;;;;;;;;;;5114563;27;20200;-75
2021/12/11 07:58:07;;;;;;;15.43;7.10;;;;;;;;;;5113932;28;20205;-75
2021/12/11 08:00:36;;;;;;;16.57;7.37;;;;;;;;;;5114412;28;20224;-75
2021/12/11 08:03:05;;;;;;;13.37;6.90;;;;;;;;;;5113439;27;20768;-75
2021/12/11 08:05:33;;;;;;;15.60;7.60;;;;;;;;;;5114207;27;20249;-75
2021/12/11 08:08:02;;;;;;;14.20;7.00;;;;;;;;;;5124422;27;20243;-75
2021/12/11 08:10:30;;;;;;;18.83;8.07;;;;;;;;;;5114909;27;20676;-76
2021/12/11 08:12:58;;;;;;;17.07;7.90;;;;;;;;;;5126495;27;20221;-76
2021/12/11 08:15:27;;;;;;;17.13;8.30;;;;;;;;;;5122443;27;20962;-76
2021/12/11 08:17:54;;;;;;;14.43;7.40;;;;;;;;;;5112864;28;20285;-77
2021/12/11 08:20:23;;;;;;;13.40;7.43;;;;;;;;;;5113241;28;20261;-77
2021/12/11 08:22:51;;;;;;;17.83;7.90;;;;;;;;;;5114091;28;20308;-77
2021/12/11 08:25:19;;;;;;;14.03;7.37;;;;;;;;;;5113624;27;20557;-77
2021/12/11 08:27:46;;;;;;;16.87;7.57;;;;;;;;;;5113396;28;20205;-78
2021/12/11 08:30:14;;;;;;;13.10;7.33;;;;;;;;;;5112666;27;20712;-77
2021/12/11 08:32:42;;;;;;;18.30;7.47;;;;;;;;;;5113138;28;20288;-77
2021/12/11 08:35:10;;;;;;;13.33;7.07;;;;;;;;;;5113204;28;20224;-76
2021/12/11 08:37:38;;;;;;;11.90;7.30;;;;;;;;;;5112894;28;20285;-77
2021/12/11 08:40:07;;;;;;;15.20;7.40;;;;;;;;;;5115831;27;20291;-76
2021/12/11 08:42:34;;;;;;;14.23;6.87;;;;;;;;;;5109421;28;20234;-77
2021/12/11 08:45:06;;;;;;;19.47;6.50;;;;;;;;;;5110089;28;20281;-76
2021/12/11 08:47:39;;;;;;;12.60;6.53;;;;;;;;;;5112910;28;20877;-76
2021/12/11 08:50:08;;;;;;;14.63;6.97;;;;;;;;;;5113456;28;20280;-76
2021/12/11 08:52:37;;;;;;;19.97;6.83;;;;;;;;;;5105643;28;20237;-76
2021/12/11 08:55:06;;;;;;;13.40;6.63;;;;;;;;;;5108803;28;20688;-76
2021/12/11 08:57:36;;;;;;;14.43;6.03;;;;;;;;;;5112913;28;20272;-76
2021/12/11 09:00:07;;;;;;;14.63;6.27;;;;;;;;;;5104551;27;20199;-76
2021/12/11 09:02:38;;;;;;;15.40;5.93;;;;;;;;;;5112939;28;20614;-77
2021/12/11 09:05:08;;;;;;;15.67;6.47;;;;;;;;;;5113730;28;20286;-76
2021/12/11 09:07:38;;;;;;;17.70;6.67;;;;;;;;;;5113303;27;20202;-76
2021/12/11 09:10:08;;;;;;;19.87;9.80;;;;;;;;;;5108018;27;20271;-78
2021/12/11 09:12:37;;;;;;;22.13;10.07;;;;;;;;;;5112441;28;20229;-76
2021/12/11 09:15:07;;;;;;;17.73;9.93;;;;;;;;;;5111823;27;20218;-76
2021/12/11 09:17:36;;;;;;;26.43;13.73;;;;;;;;;;5111784;28;20237;-75
2021/12/11 09:20:09;;;;;;;28.73;15.03;;;;;;;;;;5111795;27;20658;-76
2021/12/11 09:22:39;;;;;;;26.53;12.07;;;;;;;;;;5109179;28;20203;-76
2021/12/11 09:25:08;;;;;;;23.13;10.53;;;;;;;;;;5112447;28;20287;-76
2021/12/11 09:27:37;;;;;;;23.53;10.30;;;;;;;;;;5109093;28;20288;-76
2021/12/11 09:30:07;;;;;;;23.03;8.87;;;;;;;;;;5107383;28;20245;-76
2021/12/11 09:32:36;;;;;;;21.23;9.40;;;;;;;;;;5110401;28;20279;-76
2021/12/11 09:35:06;;;;;;;20.57;8.87;;;;;;;;;;5108091;28;20285;-76
2021/12/11 09:37:34;;;;;;;25.07;9.13;;;;;;;;;;5112240;27;20283;-76
2021/12/11 09:40:08;;;;;;;24.43;10.63;;;;;;;;;;5112158;28;20284;-76
2021/12/11 09:42:35;;;;;;;22.57;10.60;;;;;;;;;;5112685;28;20295;-76
2021/12/11 09:45:06;;;;;;;21.70;10.50;;;;;;;;;;5111800;28;20217;-76
2021/12/11 09:47:38;;;;;;;20.10;9.97;;;;;;;;;;5112967;28;20288;-76
2021/12/11 09:50:09;;;;;;;20.63;9.87;;;;;;;;;;5112153;28;20285;-76
2021/12/11 09:52:38;;;;;;;21.13;9.53;;;;;;;;;;5112198;28;20983;-76
2021/12/11 09:55:08;;;;;;;19.40;8.70;;;;;;;;;;5111729;27;20673;-76
2021/12/11 09:57:37;;;;;;;18.77;8.97;;;;;;;;;;5111395;28;20229;-76
2021/12/11 10:00:07;;;;;;;22.43;10.07;;;;;;;;;;5111603;28;20280;-76
2021/12/11 10:02:34;;;;;;;24.70;9.97;;;;;;;;;;5110443;28;20284;-76
2021/12/11 10:05:04;;;;;;;22.97;11.00;;;;;;;;;;5112275;27;20229;-75
2021/12/11 10:07:35;;;;;;;31.33;13.10;;;;;;;;;;5112738;27;20202;-76
2021/12/11 10:10:06;;;;;;;28.20;11.17;;;;;;;;;;5126053;27;20262;-76
2021/12/11 10:12:35;;;;;;;24.77;11.50;;;;;;;;;;5125814;27;20289;-76
2021/12/11 10:15:05;;;;;;;20.33;11.13;;;;;;;;;;5117488;27;20344;-76
2021/12/11 10:17:40;;;;;;;19.23;10.53;;;;;;;;;;5116694;27;20272;-76
2021/12/11 10:20:10;;;;;;;23.93;9.90;;;;;;;;;;5114631;27;20637;-76
2021/12/11 10:22:39;;;;;;;19.43;8.87;;;;;;;;;;5111882;28;20292;-76
2021/12/11 10:25:08;;;;;;;23.93;8.20;;;;;;;;;;5116775;28;20281;-75
2021/12/11 10:27:36;;;;;;;21.03;8.70;;;;;;;;;;5113428;27;20656;-77
2021/12/11 10:30:08;;;;;;;18.43;8.10;;;;;;;;;;5115446;27;20303;-75
2021/12/11 10:32:37;;;;;;;26.97;10.10;;;;;;;;;;5107558;28;20423;-75
2021/12/11 10:35:07;;;;;;;20.97;8.67;;;;;;;;;;5110663;28;20229;-75
2021/12/11 10:37:36;;;;;;;21.47;8.00;;;;;;;;;;5111449;28;20193;-75
2021/12/11 10:40:06;;;;;;;18.10;8.37;;;;;;;;;;5110486;28;20582;-75
2021/12/11 10:42:34;;;;;;;20.97;7.73;;;;;;;;;;5112176;28;20301;-75
2021/12/11 10:45:01;;;;;;;17.50;6.70;;;;;;;;;;5106730;28;20305;-72
2021/12/11 10:47:30;;;;;;;16.53;6.33;;;;;;;;;;5113680;28;20291;-75
2021/12/11 10:49:59;;;;;;;17.23;6.57;;;;;;;;;;5106874;28;20320;-75
2021/12/11 10:52:28;;;;;;;16.47;6.00;;;;;;;;;;5108050;28;20225;-73
2021/12/11 10:54:57;;;;;;;18.13;6.43;;;;;;;;;;5110893;28;20290;-76
2021/12/11 10:57:25;;;;;;;22.43;6.83;;;;;;;;;;5110359;28;20281;-75
2021/12/11 10:59:59;;;;;;;16.77;6.33;;;;;;;;;;5109922;28;20280;-74
2021/12/11 11:02:29;;;;;;;17.47;6.70;;;;;;;;;;5108251;28;20236;-74
2021/12/11 11:04:58;;;;;;;17.37;7.23;;;;;;;;;;5113400;28;20218;-73
2021/12/11 11:07:28;;;;;;;17.03;8.60;;;;;;;;;;5111267;28;20195;-74
2021/12/11 11:09:56;;;;;;;20.57;7.30;;;;;;;;;;5110560;28;20281;-74
2021/12/11 11:12:25;;;;;;;17.33;6.37;;;;;;;;;;5110991;28;20280;-73
2021/12/11 11:14:54;;;;;;;16.03;5.77;;;;;;;;;;5111462;28;20317;-73
2021/12/11 11:17:22;;;;;;;18.83;5.90;;;;;;;;;;5110882;28;20237;-73
2021/12/11 11:19:50;;;;;;;19.10;5.43;;;;;;;;;;5104631;28;20306;-73
2021/12/11 11:22:19;;;;;;;18.83;6.07;;;;;;;;;;5118429;27;20617;-73
2021/12/11 11:24:52;;;;;;;17.17;6.37;;;;;;;;;;5119959;27;20284;-74
2021/12/11 11:27:19;;;;;;;19.30;6.00;;;;;;;;;;5114546;28;20222;-73
2021/12/11 11:29:48;;;;;;;14.67;5.33;;;;;;;;;;5114466;28;20646;-73
2021/12/11 11:32:16;;;;;;;17.20;5.33;;;;;;;;;;5114737;28;20309;-73
2021/12/11 11:34:43;;;;;;;12.20;4.53;;;;;;;;;;5114662;28;20395;-73
2021/12/11 11:37:13;;;;;;;15.50;5.57;;;;;;;;;;5114034;28;20198;-74
2021/12/11 11:39:40;;;;;;;18.67;4.77;;;;;;;;;;5117981;27;20295;-74
2021/12/11 11:42:10;;;;;;;16.07;5.40;;;;;;;;;;5114867;28;20645;-74
2021/12/11 11:44:38;;;;;;;12.20;4.80;;;;;;;;;;5114302;28;20623;-73
2021/12/11 11:47:06;;;;;;;17.10;5.40;;;;;;;;;;5114822;27;20286;-75
2021/12/11 11:49:35;;;;;;;13.00;4.87;;;;;;;;;;5112020;27;20281;-74
2021/12/11 11:52:07;;;;;;;17.17;4.63;;;;;;;;;;5122377;27;20312;-74
2021/12/11 11:54:35;;;;;;;18.33;5.13;;;;;;;;;;5113567;28;20256;-74
2021/12/11 11:57:04;;;;;;;14.77;4.47;;;;;;;;;;5119561;27;20744;-74
2021/12/11 11:59:34;;;;;;;16.73;5.13;;;;;;;;;;5114052;27;20229;-73
2021/12/11 12:02:05;;;;;;;12.57;4.77;;;;;;;;;;5113727;28;20215;-73
2021/12/11 12:04:33;;;;;;;16.67;5.23;;;;;;;;;;5113825;27;20208;-74
2021/12/11 12:07:03;;;;;;;17.83;5.00;;;;;;;;;;5110193;28;20295;-74
2021/12/11 12:09:31;;;;;;;18.57;4.80;;;;;;;;;;5113504;27;20298;-75
2021/12/11 12:11:59;;;;;;;14.23;5.40;;;;;;;;;;5111261;28;20309;-74
2021/12/11 12:14:30;;;;;;;14.80;5.57;;;;;;;;;;5113754;27;20218;-74
2021/12/11 12:16:59;;;;;;;10.57;4.70;;;;;;;;;;5116941;27;20234;-74
2021/12/11 12:19:26;;;;;;;13.07;5.17;;;;;;;;;;5113332;28;20290;-74
2021/12/11 12:21:56;;;;;;;19.70;6.10;;;;;;;;;;5112868;28;20734;-74
2021/12/11 12:24:24;;;;;;;16.40;5.10;;;;;;;;;;5112775;28;20624;-74
2021/12/11 12:26:52;;;;;;;13.77;5.40;;;;;;;;;;5113130;28;20200;-73
2021/12/11 12:29:20;;;;;;;20.90;5.90;;;;;;;;;;5111472;28;20235;-74
2021/12/11 12:31:51;;;;;;;15.23;6.53;;;;;;;;;;5113531;27;20230;-74
2021/12/11 12:34:20;;;;;;;20.47;7.10;;;;;;;;;;5110991;28;20198;-74
2021/12/11 12:36:48;;;;;;;15.33;6.43;;;;;;;;;;5114425;27;20756;-73
2021/12/11 12:39:17;;;;;;;16.67;7.20;;;;;;;;;;5112322;28;20630;-73
2021/12/11 12:41:46;;;;;;;19.73;7.10;;;;;;;;;;5113190;28;20190;-73
2021/12/11 12:44:17;;;;;;;18.83;6.80;;;;;;;;;;5112209;28;20217;-73
2021/12/11 12:46:52;;;;;;;19.03;6.93;;;;;;;;;;5112948;28;20750;-73
2021/12/11 12:49:22;;;;;;;17.73;6.53;;;;;;;;;;5111738;28;20300;-73
2021/12/11 12:51:50;;;;;;;16.10;7.40;;;;;;;;;;5111000;28;20315;-73
2021/12/11 12:54:20;;;;;;;13.00;6.70;;;;;;;;;;5112958;28;20277;-74
2021/12/11 12:56:49;;;;;;;16.67;7.23;;;;;;;;;;5110128;27;20291;-74
2021/12/11 12:59:18;;;;;;;15.37;6.30;;;;;;;;;;5114222;27;20292;-74
2021/12/11 13:01:47;;;;;;;14.53;6.23;;;;;;;;;;5117152;27;20287;-74
2021/12/11 13:04:19;;;;;;;14.53;6.13;;;;;;;;;;5112295;28;20280;-73
2021/12/11 13:06:50;;;;;;;15.07;5.97;;;;;;;;;;5115495;27;20283;-76
2021/12/11 13:09:20;;;;;;;13.57;5.47;;;;;;;;;;5115252;27;20210;-74
2021/12/11 13:11:49;;;;;;;16.83;6.03;;;;;;;;;;5108114;28;20274;-76
2021/12/11 13:14:16;;;;;;;22.07;6.57;;;;;;;;;;5111257;27;20228;-77
2021/12/11 13:16:45;;;;;;;17.70;6.03;;;;;;;;;;5102791;27;20674;-76
2021/12/11 13:19:20;;;;;;;17.83;6.30;;;;;;;;;;5113515;28;20228;-76
2021/12/11 13:21:51;;;;;;;21.00;6.60;;;;;;;;;;5112780;28;20687;-76
2021/12/11 13:24:19;;;;;;;19.07;6.80;;;;;;;;;;5112707;28;20563;-76
2021/12/11 13:26:47;;;;;;;19.57;6.73;;;;;;;;;;5117007;27;20221;-77
2021/12/11 13:29:16;;;;;;;18.47;6.30;;;;;;;;;;5126985;27;20696;-76
2021/12/11 13:31:46;;;;;;;18.63;7.07;;;;;;;;;;5112246;27;20399;-76
2021/12/11 13:34:13;;;;;;;18.00;6.33;;;;;;;;;;5112097;28;20928;-80
2021/12/11 13:36:41;;;;;;;16.87;6.33;;;10.10;99.90;;;;;;5114188;27;20233;-78
2021/12/11 13:39:13;;;;;;;14.50;6.20;;;10.00;99.90;;;;;;5114319;27;20638;-76
2021/12/11 13:41:43;;;;;;;18.93;5.10;;;10.00;99.90;;;;;;5114386;27;20194;-76
2021/12/11 13:44:10;;;;;;;20.50;5.20;;;10.00;99.90;;;;;;5130737;27;20295;-76
2021/12/11 13:46:38;;;;;;;18.13;4.70;;;10.10;99.90;;;;;;5114918;27;20280;-76
2021/12/11 13:49:06;;;;;;;16.07;4.73;;;10.10;99.90;;;;;;5112551;28;20241;-76
2021/12/11 13:51:37;;;;;;;16.83;4.33;;;10.10;99.90;;;;;;5120778;27;20303;-76
2021/12/11 13:54:06;;;;;;;14.00;4.30;;;10.20;99.90;;;;;;5117491;27;20212;-76
2021/12/11 13:56:37;;;;;;;16.77;5.13;;;10.10;99.90;;;;;;5115855;27;20292;-76
2021/12/11 13:59:05;;;;;;;20.20;4.70;;;10.20;99.90;;;;;;5107862;28;20225;-76
2021/12/11 14:01:35;;;;;;;16.37;4.30;;;10.20;99.90;;;;;;5111858;28;20221;-76
2021/12/11 14:04:03;;;;;;;17.90;5.07;;;10.30;99.90;;;;;;5112111;28;20284;-76
2021/12/11 14:06:31;;;;;;;18.70;5.40;;;10.40;99.90;;;;;;5111751;28;20649;-76
2021/12/11 14:09:06;;;;;;;14.57;5.30;;;10.60;99.90;;;;;;5111855;28;21067;-76
2021/12/11 14:11:35;;;;;;;12.67;3.47;;;10.70;99.90;;;;;;5120608;27;20239;-76
2021/12/11 14:14:02;;;;;;;10.47;2.93;;;10.80;99.90;;;;;;5119179;27;20642;-76
2021/12/11 14:16:31;;;;;;;11.30;3.07;;;10.90;99.90;;;;;;5113375;27;20316;-76
2021/12/11 14:18:58;;;;;;;17.10;4.00;;;11.10;99.90;;;;;;5097776;28;20728;-76
2021/12/11 14:21:26;;;;;;;18.37;4.53;;;11.10;99.90;;;;;;5112583;28;20202;-75
2021/12/11 14:23:54;;;;;;;11.53;3.50;;;11.50;99.90;;;;;;5117281;27;20304;-76
2021/12/11 14:26:25;;;;;;;12.60;3.70;;;11.50;99.90;;;;;;5116409;28;20202;-76
2021/12/11 14:28:57;;;;;;;14.60;4.50;;;11.20;99.90;;;;;;5124405;27;20696;-76
2021/12/11 14:31:27;;;;;;;13.43;3.80;;;11.10;99.90;;;;;;5132746;27;20224;-76
2021/12/11 14:33:54;;;;;;;12.70;3.80;;;11.00;99.90;;;;;;5131339;27;20959;-78
2021/12/11 14:36:24;;;;;;;15.47;3.60;;;10.90;99.90;;;;;;5115315;28;20225;-77